| time (UTC) | temp F | wind direction | speed MPH | gust MPH | rain 1hr in | rain 24hr in | rain mn in | humidity % | barometer mb |
| 20260505195536 | 54 | 0.0 | 0.0 | 0.00 | 0.28 | 0.28 | 90 | 1011.8 | |
| 20260505194515 | 54 | 0.0 | 0.0 | 0.00 | 0.28 | 0.28 | 90 | 1011.7 | |
| 20260505193536 | 54 | 0.0 | 0.0 | 0.00 | 0.28 | 0.28 | 90 | 1011.6 | |
| 20260505192516 | 54 | 0.0 | 0.0 | 0.00 | 0.28 | 0.28 | 90 | 1011.5 | |
| 20260505191516 | 54 | 0.0 | 0.0 | 0.01 | 0.28 | 0.28 | 90 | 1011.3 | |
| 20260505190515 | 55 | 0.0 | 0.0 | 0.01 | 0.28 | 0.28 | 90 | 1011.3 | |
| 20260505185535 | 55 | 0.0 | 0.0 | 0.02 | 0.28 | 0.28 | 90 | 1011.2 | |
| 20260505184516 | 55 | 0.0 | 0.0 | 0.02 | 0.28 | 0.28 | 89 | 1010.9 | |
| 20260505183516 | 56 | 0.0 | 1.0 | 0.03 | 0.28 | 0.28 | 89 | 1010.9 | |
| 20260505182516 | 56 | 0.0 | 0.0 | 0.03 | 0.28 | 0.28 | 89 | 1011.0 | |
| 20260505181515 | 56 | 0.0 | 0.0 | 0.03 | 0.27 | 0.27 | 89 | 1010.9 | |
| 20260505180515 | 57 | 0.0 | 1.0 | 0.03 | 0.27 | 0.27 | 89 | 1010.7 | |
| 20260505175517 | 58 | 0.0 | 0.0 | 0.02 | 0.26 | 0.26 | 90 | 1010.7 | |
| 20260505174515 | 58 | 0.0 | 0.0 | 0.02 | 0.26 | 0.26 | 90 | 1010.6 | |
| 20260505173515 | 58 | 68 | 1.0 | 3.0 | 0.01 | 0.25 | 0.25 | 90 | 1010.6 |
| 20260505172517 | 58 | 0.0 | 2.0 | 0.01 | 0.25 | 0.25 | 89 | 1010.8 | |
| 20260505171538 | 58 | 0.0 | 0.0 | 0.00 | 0.24 | 0.24 | 89 | 1011.0 | |
| 20260505170517 | 58 | 0.0 | 0.0 | 0.00 | 0.24 | 0.24 | 90 | 1011.0 | |
| 20260505165518 | 58 | 0.0 | 0.0 | 0.00 | 0.24 | 0.24 | 90 | 1011.0 | |
| 20260505164518 | 58 | 0.0 | 0.0 | 0.00 | 0.24 | 0.24 | 90 | 1011.0 | |
| 20260505163517 | 58 | 0.0 | 1.0 | 0.00 | 0.24 | 0.24 | 90 | 1010.8 | |
| 20260505162517 | 58 | 0.0 | 0.0 | 0.00 | 0.24 | 0.24 | 90 | 1010.7 | |
| 20260505161517 | 58 | 0.0 | 0.0 | 0.00 | 0.24 | 0.24 | 90 | 1010.8 | |
| 20260505160517 | 58 | 0.0 | 0.0 | 0.00 | 0.24 | 0.24 | 91 | 1010.9 | |
| 20260505152517 | 59 | 0.0 | 1.0 | 0.03 | 0.24 | 0.24 | 91 | 1011.0 | |
| 20260505151517 | 58 | 0.0 | 1.0 | 0.04 | 0.24 | 0.24 | 91 | 1011.1 | |
| 20260505150517 | 58 | 0.0 | 1.0 | 0.04 | 0.24 | 0.24 | 91 | 1011.2 | |
| 20260505140517 | 58 | 0.0 | 1.0 | 0.08 | 0.20 | 0.20 | 89 | 1011.8 | |
| 20260505124516 | 59 | 0.0 | 0.0 | 0.05 | 0.05 | 0.05 | 85 | 1012.1 | |
| 20260505123516 | 60 | 293 | 1.0 | 3.0 | 0.04 | 0.04 | 0.04 | 83 | 1011.8 |
| 20260505122518 | 61 | 293 | 1.0 | 3.0 | 0.03 | 0.03 | 0.03 | 81 | 1011.6 |
| 20260505121516 | 63 | 0.0 | 2.0 | 0.01 | 0.01 | 0.01 | 79 | 1011.9 | |
| 20260505120537 | 64 | 0.0 | 1.0 | 0.00 | 0.00 | 0.00 | 73 | 1011.9 | |
| 20260505115516 | 66 | 0.0 | 2.0 | 0.00 | 0.00 | 0.00 | 69 | 1011.7 | |
| 20260505114517 | 66 | 0.0 | 1.0 | 0.00 | 0.00 | 0.00 | 65 | 1011.6 | |
| 20260505113517 | 67 | 0.0 | 1.0 | 0.00 | 0.00 | 0.00 | 63 | 1011.6 | |
| 20260505112517 | 67 | 0.0 | 1.0 | 0.00 | 0.00 | 0.00 | 63 | 1011.6 | |
| 20260505111517 | 68 | 0.0 | 2.0 | 0.00 | 0.00 | 0.00 | 62 | 1011.6 | |
| 20260505110537 | 68 | 0.0 | 2.0 | 0.00 | 0.00 | 0.00 | 60 | 1011.8 | |
| 20260505101516 | 69 | 113 | 1.0 | 3.0 | 0.00 | 0.00 | 0.00 | 61 | 1012.2 |
| 20260505100516 | 69 | 90 | 1.0 | 3.0 | 0.00 | 0.00 | 0.00 | 63 | 1012.2 |
| 20260505095517 | 69 | 158 | 1.0 | 4.0 | 0.00 | 0.00 | 0.00 | 66 | 1012.3 |
| 20260505094516 | 69 | 90 | 1.0 | 3.0 | 0.00 | 0.00 | 0.00 | 63 | 1012.4 |
| 20260505093516 | 69 | 90 | 1.0 | 3.0 | 0.00 | 0.00 | 0.00 | 66 | 1012.3 |
| 20260505092516 | 69 | 0.0 | 1.0 | 0.00 | 0.00 | 0.00 | 63 | 1012.5 | |
| 20260505091517 | 69 | 113 | 1.0 | 3.0 | 0.00 | 0.00 | 0.00 | 66 | 1012.7 |
| 20260505090516 | 68 | 113 | 1.0 | 3.0 | 0.00 | 0.00 | 0.00 | 67 | 1012.7 |
| 20260505085537 | 67 | 90 | 1.0 | 3.0 | 0.00 | 0.00 | 0.00 | 68 | 1012.7 |
| 20260505084516 | 66 | 113 | 1.0 | 2.0 | 0.00 | 0.00 | 0.00 | 71 | 1012.7 |
| 20260505083517 | 65 | 248 | 1.0 | 3.0 | 0.00 | 0.00 | 0.00 | 73 | 1012.7 |
| 20260505082516 | 63 | 0.0 | 2.0 | 0.00 | 0.00 | 0.00 | 72 | 1012.7 | |
| 20260505081516 | 63 | 0.0 | 2.0 | 0.00 | 0.00 | 0.00 | 72 | 1012.8 | |
| 20260505080516 | 63 | 0.0 | 2.0 | 0.00 | 0.00 | 0.00 | 73 | 1012.9 | |
| 20260505075517 | 63 | 0.0 | 2.0 | 0.00 | 0.00 | 0.00 | 71 | 1012.9 | |
| 20260505074516 | 64 | 0.0 | 0.0 | 0.00 | 0.00 | 0.00 | 70 | 1013.0 | |
| 20260505073516 | 65 | 0.0 | 1.0 | 0.00 | 0.00 | 0.00 | 70 | 1013.2 | |
| 20260505072517 | 65 | 0.0 | 2.0 | 0.00 | 0.00 | 0.00 | 69 | 1013.2 | |
| 20260505071516 | 64 | 45 | 1.0 | 2.0 | 0.00 | 0.00 | 0.00 | 69 | 1013.3 |
| 20260505070517 | 64 | 45 | 1.0 | 2.0 | 0.00 | 0.00 | 0.00 | 71 | 1013.3 |
| 20260505065516 | 63 | 0.0 | 1.0 | 0.00 | 0.00 | 0.00 | 74 | 1013.3 | |
| 20260505064517 | 61 | 0.0 | 1.0 | 0.00 | 0.00 | 0.00 | 75 | 1013.3 | |
| 20260505063516 | 60 | 0.0 | 1.0 | 0.00 | 0.00 | 0.00 | 77 | 1013.3 | |
| 20260505062537 | 60 | 0.0 | 1.0 | 0.00 | 0.00 | 0.00 | 79 | 1013.3 | |
| 20260505061516 | 59 | 0.0 | 0.0 | 0.00 | 0.00 | 0.00 | 82 | 1013.3 | |
| 20260505060516 | 58 | 0.0 | 0.0 | 0.00 | 0.00 | 0.00 | 83 | 1013.5 | |
| 20260505055516 | 57 | 0.0 | 0.0 | 0.00 | 0.00 | 0.00 | 83 | 1013.4 | |
| 20260505054517 | 56 | 0.0 | 0.0 | 0.00 | 0.00 | 0.00 | 84 | 1013.5 | |
| 20260505053516 | 56 | 0.0 | 0.0 | 0.00 | 0.00 | 0.00 | 84 | 1013.4 | |
| 20260505052536 | 56 | 0.0 | 0.0 | 0.00 | 0.00 | 0.00 | 84 | 1013.4 | |
| 20260505051516 | 55 | 0.0 | 0.0 | 0.00 | 0.00 | 0.00 | 84 | 1013.4 | |
| 20260505050516 | 55 | 0.0 | 0.0 | 0.00 | 0.00 | 0.00 | 84 | 1013.4 | |
| 20260505041516 | 55 | 0.0 | 0.0 | 0.00 | 0.00 | 0.00 | 83 | 1013.5 | |
| 20260505040515 | 55 | 0.0 | 0.0 | 0.00 | 0.00 | 0.00 | 83 | 1013.6 | |
| 20260505035516 | 55 | 0.0 | 0.0 | 0.00 | 0.00 | 0.00 | 83 | 1013.6 | |
| 20260505034516 | 55 | 0.0 | 0.0 | 0.00 | 0.00 | 0.00 | 83 | 1013.6 | |
| 20260505033516 | 55 | 0.0 | 0.0 | 0.00 | 0.00 | 0.00 | 82 | 1013.7 | |
| 20260505032516 | 55 | 0.0 | 0.0 | 0.00 | 0.00 | 0.00 | 82 | 1013.7 | |
| 20260505031536 | 55 | 0.0 | 0.0 | 0.00 | 0.00 | 0.00 | 82 | 1013.9 | |
| 20260505030516 | 56 | 0.0 | 0.0 | 0.00 | 0.00 | 0.00 | 82 | 1014.1 | |
| 20260505025516 | 56 | 0.0 | 0.0 | 0.00 | 0.00 | 0.00 | 81 | 1013.9 | |
| 20260505024516 | 56 | 0.0 | 0.0 | 0.00 | 0.00 | 0.00 | 81 | 1014.1 | |
| 20260505023515 | 56 | 0.0 | 0.0 | 0.00 | 0.00 | 0.00 | 80 | 1014.2 | |
| 20260505022516 | 56 | 0.0 | 0.0 | 0.00 | 0.00 | 0.00 | 80 | 1014.3 | |
| 20260505021515 | 56 | 0.0 | 0.0 | 0.00 | 0.00 | 0.00 | 80 | 1014.5 | |
| 20260505020516 | 56 | 0.0 | 0.0 | 0.00 | 0.00 | 0.00 | 80 | 1014.6 | |
| 20260505015515 | 56 | 0.0 | 0.0 | 0.00 | 0.00 | 0.00 | 79 | 1014.8 | |
| 20260505014515 | 56 | 0.0 | 0.0 | 0.00 | 0.00 | 0.00 | 79 | 1015.0 | |
| 20260505013515 | 56 | 0.0 | 0.0 | 0.00 | 0.00 | 0.00 | 79 | 1015.1 | |
| 20260505012516 | 56 | 0.0 | 0.0 | 0.00 | 0.00 | 0.00 | 79 | 1015.3 | |
| 20260505011516 | 56 | 0.0 | 0.0 | 0.00 | 0.00 | 0.00 | 79 | 1015.4 | |
| 20260505010515 | 56 | 0.0 | 0.0 | 0.00 | 0.00 | 0.00 | 79 | 1015.6 | |
| 20260505005516 | 56 | 0.0 | 0.0 | 0.00 | 0.00 | 0.00 | 78 | 1015.5 | |
| 20260505004516 | 56 | 0.0 | 0.0 | 0.00 | 0.00 | 0.00 | 78 | 1015.6 | |
| 20260505003516 | 56 | 0.0 | 0.0 | 0.00 | 0.00 | 0.00 | 78 | 1015.5 | |
| 20260505002515 | 56 | 0.0 | 0.0 | 0.00 | 0.00 | 0.00 | 77 | 1015.6 | |
| 20260505001515 | 57 | 0.0 | 0.0 | 0.00 | 0.00 | 0.00 | 78 | 1015.6 | |
| 20260505000516 | 57 | 0.0 | 0.0 | 0.00 | 0.00 | 0.00 | 77 | 1015.8 | |
| 20260504235515 | 57 | 0.0 | 0.0 | 0.00 | 0.00 | 0.00 | 76 | 1015.7 | |
| 20260504234515 | 57 | 0.0 | 0.0 | 0.00 | 0.00 | 0.00 | 75 | 1015.8 | |
| 20260504233515 | 57 | 0.0 | 0.0 | 0.00 | 0.00 | 0.00 | 75 | 1015.9 | |
| 20260504232516 | 58 | 0.0 | 0.0 | 0.00 | 0.00 | 0.00 | 75 | 1015.9 | |
| 20260504231515 | 58 | 0.0 | 0.0 | 0.00 | 0.00 | 0.00 | 75 | 1016.1 | |
| 20260504230515 | 58 | 0.0 | 0.0 | 0.00 | 0.00 | 0.00 | 76 | 1016.4 | |
| 20260504225515 | 58 | 0.0 | 0.0 | 0.00 | 0.00 | 0.00 | 76 | 1016.2 | |
| 20260504224515 | 58 | 0.0 | 0.0 | 0.00 | 0.00 | 0.00 | 77 | 1016.3 | |
| 20260504223515 | 58 | 0.0 | 0.0 | 0.00 | 0.00 | 0.00 | 77 | 1016.3 | |
| 20260504222517 | 58 | 0.0 | 0.0 | 0.00 | 0.00 | 0.00 | 77 | 1016.5 | |
| 20260504221517 | 58 | 0.0 | 0.0 | 0.00 | 0.00 | 0.00 | 77 | 1016.6 | |
| 20260504220539 | 58 | 0.0 | 0.0 | 0.00 | 0.00 | 0.00 | 77 | 1016.6 | |
| 20260504215515 | 58 | 0.0 | 0.0 | 0.00 | 0.00 | 0.00 | 77 | 1016.4 | |
| 20260504214515 | 58 | 0.0 | 1.0 | 0.00 | 0.00 | 0.00 | 76 | 1016.4 | |
| 20260504213555 | 59 | 0.0 | 0.0 | 0.00 | 0.00 | 0.00 | 76 | 1016.9 | |
| 20260504212557 | 59 | 0.0 | 0.0 | 0.00 | 0.00 | 0.00 | 76 | 1016.5 | |
| 20260504211516 | 59 | 0.0 | 0.0 | 0.00 | 0.00 | 0.00 | 76 | 1016.4 | |
| 20260504210515 | 59 | 0.0 | 0.0 | 0.00 | 0.00 | 0.00 | 75 | 1016.5 | |
| 20260504205515 | 59 | 0.0 | 0.0 | 0.00 | 0.00 | 0.00 | 75 | 1016.6 | |
| 20260504204515 | 59 | 0.0 | 0.0 | 0.00 | 0.00 | 0.00 | 74 | 1016.7 | |
| 20260504203515 | 59 | 0.0 | 0.0 | 0.00 | 0.00 | 0.00 | 74 | 1016.6 | |
| 20260504202516 | 60 | 0.0 | 0.0 | 0.00 | 0.00 | 0.00 | 74 | 1016.6 | |
| 20260504201515 | 60 | 0.0 | 0.0 | 0.00 | 0.00 | 0.00 | 74 | 1016.6 | |
| 20260504200517 | 60 | 0.0 | 0.0 | 0.00 | 0.00 | 0.00 | 72 | 1016.6 |